Weather at Stuttgart Airport

Public forecast

Using degrees Celsius for public forecast. Weather courtesy of forecast.io.

Current aviation weather report (METAR) for Stuttgart Airport

Report is more than 6 hours old.

2022/11/14 15:20 (retrieved 2 years ago)

EDDS 141520Z AUTO VRB02KT 9999 SCT047 12/07 Q1014 NOSIG

Aviation forecast (TAF) for Stuttgart Airport

Forecast is more than 12 hours old.

2023/02/22 18:27 (retrieved 1 year ago)

TAF TAF EDDS 221700Z 2218/2318 VRB03KT CAVOK TEMPO 2301/2309 4000 SHRA BKN012CB PROB30 TEMPO 2309/2315 4500 -SHRA BKN015CB